Time;durP1;ratioP1;P1;durP2;ratioP2;P2;SDS_P1;SDS_P2;PMS_P1;PMS_P2;Temp;Humidity;BMP_temperature;BMP_pressure;BME280_temperature;BME280_humidity;BME280_pressure;Samples;Min_cycle;Max_cycle;Signal;HPM_P1;HPM_P2
2024/01/04 00:01:24;;;;;;;;;;;;;;;25.79;39.28;93200.31;4945507;28;7274;-45
2024/01/04 00:03:50;;;;;;;;;;;;;;;25.79;39.71;93208.59;4958968;28;7522;-41
2024/01/04 00:06:17;;;;;;;;;;;;;;;25.80;39.61;93210.03;4966114;28;7417;-41
2024/01/04 00:08:43;;;;;;;;;;;;;;;25.79;39.29;93233.38;4946924;28;9061;-41
2024/01/04 00:11:11;;;;;;;;;;;;;;;25.80;39.51;93237.59;4942141;28;7286;-39
2024/01/04 00:13:39;;;;;;;;;;;;;;;25.79;39.23;93235.38;4966477;28;7397;-40
2024/01/04 00:16:10;;;;;;;;;;;;;;;25.79;39.55;93238.88;4943928;28;7341;-41
2024/01/04 00:18:37;;;;;;;;;;;;;;;25.79;39.19;93247.13;4942857;28;8625;-39
2024/01/04 00:21:03;;;;;;;;;;;;;;;25.79;39.08;93232.63;4949501;28;9394;-40
2024/01/04 00:23:36;;;;;;;;;;;;;;;25.77;39.22;93211.13;4947115;28;7207;-39
2024/01/04 00:26:09;;;;;;;;;;;;;;;25.78;39.46;93242.91;4963017;28;9008;-42
2024/01/04 00:28:35;;;;;;;;;;;;;;;25.78;39.61;93236.63;4941118;28;6995;-36
2024/01/04 00:31:03;;;;;;;;;;;;;;;25.80;39.72;93245.84;4940568;28;7051;-36
2024/01/04 00:33:39;;;;;;;;;;;;;;;25.79;39.01;93243.63;4951379;28;9438;-36
2024/01/04 00:36:36;;;;;;;;;;;;;;;25.79;39.69;93252.66;4946183;28;6863;-36
2024/01/04 00:39:24;;;;;;;;;;;;;;;25.77;38.92;93249.69;4959963;28;7274;-36
2024/01/04 00:41:59;;;;;;;;;;;;;;;25.77;38.97;93260.72;4956059;28;7359;-36
2024/01/04 00:44:37;;;;;;;;;;;;;;;25.78;39.05;93264.94;4953339;28;8751;-36
2024/01/04 00:47:05;;;;;;;;;;;;;;;25.74;39.47;93250.75;4949188;29;7255;-36
2024/01/04 00:49:32;;;;;;;;;;;;;;;25.77;39.46;93257.22;4951094;29;9521;-36
2024/01/04 00:52:04;;;;;;;;;;;;;;;25.76;39.62;93250.97;4960875;28;7619;-36
2024/01/04 00:54:57;;;;;;;;;;;;;;;25.75;38.99;93257.03;4961024;28;7257;-36
2024/01/04 00:57:29;;;;;;;;;;;;;;;25.73;39.43;93245.81;4935620;28;7358;-36
2024/01/04 01:00:14;;;;;;;;;;;;;;;25.74;39.09;93245.25;4938334;29;7270;-36
2024/01/04 01:02:40;;;;;;;;;;;;;;;25.74;39.25;93236.25;4954553;28;7088;-36
2024/01/04 01:05:08;;;;;;;;;;;;;;;25.74;39.10;93233.50;4938544;29;8767;-36
2024/01/04 01:07:34;;;;;;;;;;;;;;;25.75;39.48;93232.94;4937843;29;7315;-36
2024/01/04 01:10:07;;;;;;;;;;;;;;;25.75;39.56;93232.94;4935503;29;8935;-36
2024/01/04 01:12:55;;;;;;;;;;;;;;;25.78;39.30;93234.63;4922935;29;9183;-36
2024/01/04 01:15:21;;;;;;;;;;;;;;;25.77;39.38;93241.44;4922172;29;9059;-36
2024/01/04 01:18:22;;;;;;;;;;;;;;;25.78;39.70;93237.38;4936419;29;7198;-36
2024/01/04 01:21:05;;;;;;;;;;;;;;;25.77;39.10;93249.69;4921912;29;9372;-36
2024/01/04 01:24:08;;;;;;;;;;;;;;;25.77;39.31;93249.69;4935257;29;7203;-36
2024/01/04 01:26:34;;;;;;;;;;;;;;;25.76;38.95;93261.97;4877122;29;7865;-36
2024/01/04 01:29:13;;;;;;;;;;;;;;;25.76;39.51;93258.47;4878767;29;9302;-36
2024/01/04 01:31:48;;;;;;;;;;;;;;;25.75;39.43;93268.03;4881111;29;6972;-36
2024/01/04 01:34:34;;;;;;;;;;;;;;;25.75;39.04;93271.50;4890740;29;9128;-36
2024/01/04 01:37:01;;;;;;;;;;;;;;;25.72;39.19;93269.84;4914812;29;7232;-36
2024/01/04 01:39:40;;;;;;;;;;;;;;;25.74;39.12;93270.03;4907016;29;7245;-48
2024/01/04 01:42:05;;;;;;;;;;;;;;;25.75;39.77;93271.50;4914691;29;7218;-46
2024/01/04 01:45:00;;;;;;;;;;;;;;;25.76;39.81;93289.53;4918172;29;7010;-47
2024/01/04 01:47:27;;;;;;;;;;;;;;;25.76;38.89;93289.53;4907436;29;7011;-49
2024/01/04 01:50:03;;;;;;;;;;;;;;;25.76;39.38;93275.00;4915324;29;9231;-49
2024/01/04 01:52:31;;;;;;;;;;;;;;;25.76;39.14;93297.78;4889050;29;9541;-48
2024/01/04 01:55:11;;;;;;;;;;;;;;;25.76;39.67;93308.06;4913670;29;9074;-49
2024/01/04 01:57:37;;;;;;;;;;;;;;;25.76;39.35;93302.53;4912932;29;7371;-49
2024/01/04 02:00:16;;;;;;;;;;;;;;;25.75;39.34;93310.06;4923181;29;7084;-49
2024/01/04 02:02:49;;;;;;;;;;;;;;;25.78;38.92;93311.00;4946534;28;7137;-49
2024/01/04 02:05:15;;;;;;;;;;;;;;;25.77;38.88;93310.28;4950383;28;9104;-48
2024/01/04 02:07:44;;;;;;;;;;;;;;;25.76;38.86;93316.31;4939403;28;7220;-48
2024/01/04 02:10:11;;;;;;;;;;;;;;;25.77;38.76;93323.31;4948636;28;9052;-49
2024/01/04 02:12:42;;;;;;;;;;;;;;;25.78;39.10;93322.03;4959950;28;7232;-48
2024/01/04 02:15:09;;;;;;;;;;;;;;;25.72;39.48;93311.16;4939682;28;6980;-50
2024/01/04 02:17:51;;;;;;;;;;;;;;;25.75;39.49;93318.31;4961812;28;8986;-49
2024/01/04 02:20:26;;;;;;;;;;;;;;;25.72;39.30;93326.94;4947835;28;9444;-48
2024/01/04 02:23:35;;;;;;;;;;;;;;;25.76;39.09;93319.81;4957660;28;7057;-50
2024/01/04 02:26:10;;;;;;;;;;;;;;;25.75;39.30;93332.09;4972359;28;8277;-51
2024/01/04 02:28:41;;;;;;;;;;;;;;;25.74;38.84;93332.66;4956281;28;9122;-48
2024/01/04 02:31:22;;;;;;;;;;;;;;;25.73;38.93;93334.66;4947118;28;7450;-47
2024/01/04 02:33:50;;;;;;;;;;;;;;;25.72;39.66;93333.19;4953490;28;9132;-50
2024/01/04 02:36:19;;;;;;;;;;;;;;;25.72;39.51;93338.69;4957199;28;8724;-47
2024/01/04 02:39:05;;;;;;;;;;;;;;;25.73;39.57;93340.16;4960864;28;8938;-48
2024/01/04 02:41:45;;;;;;;;;;;;;;;25.73;39.72;93342.91;4949719;28;8772;-50
2024/01/04 02:44:15;;;;;;;;;;;;;;;25.70;39.38;93344.00;4972179;28;9115;-50
2024/01/04 02:46:48;;;;;;;;;;;;;;;25.71;38.68;93350.97;4944146;28;6991;-48
2024/01/04 02:49:25;;;;;;;;;;;;;;;25.72;38.93;93366.25;4956471;28;7040;-49
2024/01/04 02:52:35;;;;;;;;;;;;;;;25.72;39.63;93355.22;4953678;28;9256;-48
2024/01/04 02:55:04;;;;;;;;;;;;;;;25.72;39.19;93346.22;4962459;28;7055;-47
2024/01/04 02:57:32;;;;;;;;;;;;;;;25.73;38.75;93355.97;4948709;28;7209;-48
2024/01/04 02:59:59;;;;;;;;;;;;;;;25.74;38.61;93340.91;4953852;28;7394;-37
2024/01/04 03:02:27;;;;;;;;;;;;;;;25.69;38.92;93342.50;4971450;28;9417;-36
2024/01/04 03:05:03;;;;;;;;;;;;;;;25.73;39.19;93339.44;4956395;28;7178;-36
2024/01/04 03:07:29;;;;;;;;;;;;;;;25.73;39.27;93345.66;4965567;28;9047;-36
2024/01/04 03:09:56;;;;;;;;;;;;;;;25.72;38.65;93344.22;4936781;29;9387;-36
2024/01/04 03:12:37;;;;;;;;;;;;;;;25.70;39.17;93341.25;4938602;28;7054;-37
2024/01/04 03:15:08;;;;;;;;;;;;;;;25.71;39.09;93347.50;4968678;28;6994;-37
2024/01/04 03:17:45;;;;;;;;;;;;;;;25.72;38.79;93351.72;4942211;28;8863;-36
2024/01/04 03:20:18;;;;;;;;;;;;;;;25.73;38.62;93347.72;4969567;28;9443;-36
2024/01/04 03:22:44;;;;;;;;;;;;;;;25.73;38.91;93339.44;4957560;28;6992;-37
2024/01/04 03:25:12;;;;;;;;;;;;;;;25.71;38.66;93331.69;4939477;28;9445;-36
2024/01/04 03:27:42;;;;;;;;;;;;;;;25.72;39.12;93341.44;4955611;28;8751;-37
2024/01/04 03:30:14;;;;;;;;;;;;;;;25.71;39.10;93328.94;4968297;28;7349;-36
2024/01/04 03:32:51;;;;;;;;;;;;;;;25.73;39.28;93326.38;4956583;28;6995;-36
2024/01/04 03:36:01;;;;;;;;;;;;;;;25.72;38.84;93327.69;4969337;28;7035;-37
2024/01/04 03:38:38;;;;;;;;;;;;;;;25.74;38.56;93325.13;4971384;28;7042;-36
2024/01/04 03:41:24;;;;;;;;;;;;;;;25.72;38.74;93329.69;4947238;28;9093;-36
2024/01/04 03:43:55;;;;;;;;;;;;;;;25.71;38.58;93330.97;4958160;28;8424;-36
2024/01/04 03:46:28;;;;;;;;;;;;;;;25.68;38.67;93343.81;4939286;28;8840;-36
2024/01/04 03:49:06;;;;;;;;;;;;;;;25.68;38.79;93352.06;4946182;28;9197;-36
2024/01/04 03:51:33;;;;;;;;;;;;;;;25.67;38.50;93367.09;4955564;28;7284;-36
2024/01/04 03:53:59;;;;;;;;;;;;;;;25.66;39.07;93368.38;4963036;28;7320;-36
2024/01/04 03:56:28;;;;;;;;;;;;;;;25.66;39.51;93371.13;4946103;28;9026;-36
2024/01/04 03:58:54;;;;;;;;;;;;;;;25.67;38.88;93369.84;4946038;28;7278;-36
2024/01/04 04:01:20;;;;;;;;;;;;;;;25.68;38.94;93368.59;4947085;28;8484;-37
2024/01/04 04:03:48;;;;;;;;;;;;;;;25.62;39.13;93376.22;4960673;28;9183;-37
2024/01/04 04:06:27;;;;;;;;;;;;;;;25.66;38.71;93378.66;4949285;28;9214;-36
2024/01/04 04:09:20;;;;;;;;;;;;;;;25.65;38.55;93393.69;4965647;28;7120;-36
2024/01/04 04:11:49;;;;;;;;;;;;;;;25.63;38.96;93385.22;4961767;28;7368;-37
2024/01/04 04:14:54;;;;;;;;;;;;;;;25.64;38.63;93381.94;4948745;28;8742;-36
2024/01/04 04:17:24;;;;;;;;;;;;;;;25.64;38.70;93387.47;4948777;28;9666;-36
2024/01/04 04:19:57;;;;;;;;;;;;;;;25.68;38.46;93390.63;4963362;28;8451;-36
2024/01/04 04:22:23;;;;;;;;;;;;;;;25.67;38.65;93391.13;4954783;28;9096;-36
2024/01/04 04:24:57;;;;;;;;;;;;;;;25.68;38.58;93387.88;4970932;28;7499;-37
2024/01/04 04:27:36;;;;;;;;;;;;;;;25.70;38.47;93395.59;4956033;28;9099;-37
2024/01/04 04:30:30;;;;;;;;;;;;;;;25.68;38.22;93393.38;4949042;28;9268;-36
2024/01/04 04:33:13;;;;;;;;;;;;;;;25.65;39.00;93399.94;4969283;28;6999;-36
2024/01/04 04:35:49;;;;;;;;;;;;;;;25.64;38.11;93415.00;4936304;29;9256;-37
2024/01/04 04:38:23;;;;;;;;;;;;;;;25.68;38.52;93414.66;4951559;28;7969;-36
2024/01/04 04:40:59;;;;;;;;;;;;;;;25.66;38.49;93417.97;4955339;28;7112;-36
2024/01/04 04:43:26;;;;;;;;;;;;;;;25.68;38.64;93425.69;4955236;28;9428;-36
2024/01/04 04:45:55;;;;;;;;;;;;;;;25.67;38.95;93427.69;4969146;28;9179;-36
2024/01/04 04:48:32;;;;;;;;;;;;;;;25.66;39.07;93434.47;4945044;28;9347;-36
2024/01/04 04:51:07;;;;;;;;;;;;;;;25.67;38.53;93430.44;4952589;28;9059;-36
2024/01/04 04:53:54;;;;;;;;;;;;;;;25.64;38.96;93434.28;4952032;28;9250;-36
2024/01/04 04:56:23;;;;;;;;;;;;;;;25.63;38.49;93430.03;4963464;28;7936;-36
2024/01/04 04:58:58;;;;;;;;;;;;;;;25.61;38.66;93432.59;4959111;28;9092;-36
2024/01/04 05:01:26;;;;;;;;;;;;;;;25.61;38.40;93431.84;4952155;29;9390;-36
2024/01/04 05:03:53;;;;;;;;;;;;;;;25.62;39.26;93447.81;4956906;28;9365;-37
2024/01/04 05:06:19;;;;;;;;;;;;;;;25.63;38.29;93445.81;4945706;29;9534;-36
2024/01/04 05:08:45;;;;;;;;;;;;;;;25.66;38.96;93455.75;4939839;29;7219;-36
2024/01/04 05:11:22;;;;;;;;;;;;;;;25.65;38.45;93457.03;4952848;28;7065;-36
2024/01/04 05:13:54;;;;;;;;;;;;;;;25.63;38.37;93457.56;4965633;28;7306;-36
2024/01/04 05:16:34;;;;;;;;;;;;;;;25.67;38.26;93468.25;4936706;28;8188;-36
2024/01/04 05:19:28;;;;;;;;;;;;;;;25.67;39.01;93457.97;4936208;29;9131;-58
2024/01/04 05:22:23;;;;;;;;;;;;;;;25.65;38.67;93457.78;4948592;29;9081;-57
2024/01/04 05:24:59;;;;;;;;;;;;;;;25.65;38.74;93466.03;4897111;29;9054;-57
2024/01/04 05:27:31;;;;;;;;;;;;;;;25.65;38.43;93468.03;4875621;29;8784;-58
2024/01/04 05:30:09;;;;;;;;;;;;;;;25.65;38.75;93482.56;4894636;29;8653;-57
2024/01/04 05:32:36;;;;;;;;;;;;;;;25.65;38.61;93492.81;4895923;29;7063;-57
2024/01/04 05:35:04;;;;;;;;;;;;;;;25.68;38.70;93500.03;4889980;29;8752;-57
2024/01/04 05:37:41;;;;;;;;;;;;;;;25.65;38.88;93499.09;4884714;29;7155;-57
2024/01/04 05:40:10;;;;;;;;;;;;;;;25.65;38.53;93498.34;4892497;29;7249;-58
2024/01/04 05:42:41;;;;;;;;;;;;;;;25.64;38.17;93514.13;4879259;29;9055;-57
2024/01/04 05:45:32;;;;;;;;;;;;;;;25.66;38.64;93510.84;4883613;29;9094;-58
2024/01/04 05:48:07;;;;;;;;;;;;;;;25.64;38.81;93503.13;4899544;29;7558;-57
2024/01/04 05:50:52;;;;;;;;;;;;;;;25.66;38.85;93508.09;4891659;29;8734;-58
2024/01/04 05:53:19;;;;;;;;;;;;;;;25.63;38.46;93492.63;4890290;29;7069;-57
2024/01/04 05:55:45;;;;;;;;;;;;;;;25.67;38.80;93501.28;4878274;29;7671;-57
2024/01/04 05:58:19;;;;;;;;;;;;;;;25.64;37.97;93508.63;4894748;29;6999;-58
2024/01/04 06:01:01;;;;;;;;;;;;;;;25.64;38.84;93507.88;4917265;28;7244;-57
2024/01/04 06:03:37;;;;;;;;;;;;;;;25.64;38.11;93510.63;4944315;28;9071;-57
2024/01/04 06:06:18;;;;;;;;;;;;;;;25.61;38.04;93515.19;4939532;28;7281;-57
2024/01/04 06:08:43;;;;;;;;;;;;;;;25.62;38.77;93521.44;4952167;28;8949;-57
2024/01/04 06:11:18;;;;;;;;;;;;;;;25.64;38.22;93522.41;4957306;28;7254;-57
2024/01/04 06:13:46;;;;;;;;;;;;;;;25.63;38.59;93523.66;4971765;28;8959;-58
2024/01/04 06:16:12;;;;;;;;;;;;;;;25.62;38.12;93535.22;4959774;28;8935;-58
2024/01/04 06:18:39;;;;;;;;;;;;;;;25.63;38.77;93531.19;4953631;28;7242;-58
2024/01/04 06:21:12;;;;;;;;;;;;;;;25.62;38.30;93544.19;4948528;28;8489;-58
2024/01/04 06:23:47;;;;;;;;;;;;;;;25.61;38.16;93523.44;4967301;28;9344;-57
2024/01/04 06:26:18;;;;;;;;;;;;;;;25.59;38.59;93512.22;4956989;28;7004;-57
2024/01/04 06:28:52;;;;;;;;;;;;;;;25.63;38.63;93544.94;4970744;28;9089;-41
2024/01/04 06:31:23;;;;;;;;;;;;;;;25.64;38.09;93541.69;4981363;28;9505;-41
2024/01/04 06:34:04;;;;;;;;;;;;;;;25.60;38.17;93546.03;4973665;28;7272;-41
2024/01/04 06:36:31;;;;;;;;;;;;;;;25.58;38.52;93543.78;4950599;28;7093;-39
2024/01/04 06:39:05;;;;;;;;;;;;;;;25.59;38.63;93542.53;4956494;28;8862;-57
2024/01/04 06:41:44;;;;;;;;;;;;;;;25.58;38.75;93543.78;4954062;28;7000;-57
2024/01/04 06:44:37;;;;;;;;;;;;;;;25.60;38.03;93551.53;4945514;28;9111;-57
2024/01/04 06:47:49;;;;;;;;;;;;;;;25.58;38.57;93557.53;4956366;28;7067;-58
2024/01/04 06:50:50;;;;;;;;;;;;;;;25.55;38.79;93550.38;4906049;29;8704;-37
2024/01/04 06:53:17;;;;;;;;;;;;;;;25.48;38.13;93551.00;4895170;29;7213;-37
2024/01/04 06:56:09;;;;;;;;;;;;;;;25.44;38.84;93545.06;4913434;29;9252;-37
2024/01/04 06:58:37;;;;;;;;;;;;;;;25.43;39.29;93549.81;4902349;29;7236;-37
2024/01/04 07:01:03;;;;;;;;;;;;;;;25.40;38.99;93550.13;4899878;29;7419;-37
2024/01/04 07:03:32;;;;;;;;;;;;;;;25.46;39.03;93552.78;4891240;29;7435;-37
2024/01/04 07:06:10;;;;;;;;;;;;;;;25.48;38.86;93553.75;4892945;29;7010;-37
2024/01/04 07:08:35;;;;;;;;;;;;;;;25.54;38.92;93559.88;4890664;29;9061;-37
2024/01/04 07:11:13;;;;;;;;;;;;;;;25.52;38.52;93564.44;4892141;29;8968;-36
2024/01/04 07:13:47;;;;;;;;;;;;;;;25.50;39.57;93569.72;4899248;29;7297;-37
2024/01/04 07:16:16;;;;;;;;;;;;;;;25.54;39.27;93562.63;4904997;29;7924;-37
2024/01/04 07:18:55;;;;;;;;;;;;;;;25.52;38.96;93565.19;4898733;29;7377;-37
2024/01/04 07:21:22;;;;;;;;;;;;;;;25.56;38.74;93573.88;4898761;29;9072;-36
2024/01/04 07:24:06;;;;;;;;;;;;;;;25.58;38.65;93578.84;4882258;29;7175;-37
2024/01/04 07:26:35;;;;;;;;;;;;;;;25.55;39.41;93580.66;4898445;28;7337;-37
2024/01/04 07:29:07;;;;;;;;;;;;;;;25.57;39.20;93585.63;4964230;28;7263;-36
2024/01/04 07:31:42;;;;;;;;;;;;;;;25.59;38.75;93588.59;4955514;28;7254;-36
2024/01/04 07:34:12;;;;;;;;;;;;;;;25.59;38.78;93594.09;4964346;28;7084;-36
2024/01/04 07:36:40;;;;;;;;;;;;;;;25.61;39.11;93594.31;4965904;28;9503;-37
2024/01/04 07:39:07;;;;;;;;;;;;;;;25.61;39.03;93591.56;4957555;28;7029;-37
2024/01/04 07:41:37;;;;;;;;;;;;;;;25.62;39.17;93593.03;4954687;28;7117;-37
2024/01/04 07:44:40;;;;;;;;;;;;;;;25.64;39.40;93602.25;4952048;28;9707;-37
2024/01/04 07:47:36;;;;;;;;;;;;;;;25.66;39.49;93610.00;4889139;29;9167;-36
2024/01/04 07:50:18;;;;;;;;;;;;;;;25.66;38.52;93601.72;4896588;29;7256;-36
2024/01/04 07:52:53;;;;;;;;;;;;;;;25.65;39.54;93606.50;4877516;29;7070;-36
2024/01/04 07:55:27;;;;;;;;;;;;;;;25.63;38.82;93616.53;4892798;29;9079;-37
2024/01/04 07:57:53;;;;;;;;;;;;;;;25.62;38.95;93626.09;4892016;29;7032;-38
2024/01/04 08:00:21;;;;;;;;;;;;;;;25.63;39.07;93627.56;4869702;29;9077;-36
2024/01/04 08:02:46;;;;;;;;;;;;;;;25.63;39.18;93617.28;4874017;29;9438;-37
2024/01/04 08:05:44;;;;;;;;;;;;;;;25.67;38.97;93620.47;4894959;29;7294;-36
2024/01/04 08:08:34;;;;;;;;;;;;;;;25.70;39.11;93626.94;4839449;29;9075;-36
2024/01/04 08:11:02;;;;;;;;;;;;;;;25.68;39.53;93624.72;4837779;29;7137;-36
2024/01/04 08:13:34;;;;;;;;;;;;;;;25.66;39.03;93632.78;4840928;29;9123;-36
2024/01/04 08:16:10;;;;;;;;;;;;;;;25.63;38.93;93622.81;4834583;29;9575;-37
2024/01/04 08:18:49;;;;;;;;;;;;;;;25.64;39.62;93618.03;4834187;29;7194;-36
2024/01/04 08:21:25;;;;;;;;;;;;;;;25.66;41.53;93626.50;4840232;29;9065;-37
2024/01/04 08:24:00;;;;;;;;;;;;;;;25.70;40.57;93624.19;4895393;29;7244;-36
2024/01/04 08:26:27;;;;;;;;;;;;;;;25.68;40.05;93619.22;4902692;29;6979;-37
2024/01/04 08:28:53;;;;;;;;;;;;;;;25.67;39.99;93622.47;4892055;29;9587;-37
2024/01/04 08:31:19;;;;;;;;;;;;;;;25.67;39.92;93630.72;4906614;29;8701;-36
2024/01/04 08:33:47;;;;;;;;;;;;;;;25.65;39.93;93619.50;4898505;29;8769;-37
2024/01/04 08:36:13;;;;;;;;;;;;;;;25.67;40.16;93620.47;4894315;29;9129;-36
2024/01/04 08:38:43;;;;;;;;;;;;;;;25.67;39.46;93628.72;4896451;29;9338;-37
2024/01/04 08:41:40;;;;;;;;;;;;;;;25.69;39.99;93641.97;4905632;29;7284;-37
2024/01/04 08:44:44;;;;;;;;;;;;;;;25.70;39.50;93641.44;4873388;29;9023;-36
2024/01/04 08:47:11;;;;;;;;;;;;;;;25.70;39.98;93641.44;4910824;29;7093;-36
2024/01/04 08:49:39;;;;;;;;;;;;;;;25.71;40.36;93645.69;4895295;29;9298;-37
2024/01/04 08:52:10;;;;;;;;;;;;;;;25.68;39.99;93646.75;4881655;29;9416;-36
2024/01/04 08:54:46;;;;;;;;;;;;;;;25.68;40.41;93648.75;4881710;29;7230;-37
2024/01/04 08:57:32;;;;;;;;;;;;;;;25.68;40.42;93646.00;4880338;29;7240;-36
2024/01/04 08:59:58;;;;;;;;;;;;;;;25.68;39.81;93652.25;4884732;29;7231;-37
2024/01/04 09:02:37;;;;;;;;;;;;;;;25.66;40.54;93657.56;4881476;29;6976;-37
2024/01/04 09:05:04;;;;;;;;;;;;;;;25.67;40.42;93661.78;4883912;29;9126;-37
2024/01/04 09:07:30;;;;;;;;;;;;;;;25.68;39.94;93666.03;4891708;29;9507;-36
2024/01/04 09:09:56;;;;;;;;;;;;;;;25.69;40.37;93675.00;4886891;29;7004;-39
2024/01/04 09:12:23;;;;;;;;;;;;;;;25.69;39.61;93667.50;4900991;29;9058;-40
2024/01/04 09:14:55;;;;;;;;;;;;;;;25.73;40.23;93667.91;4888530;29;9021;-39
2024/01/04 09:17:51;;;;;;;;;;;;;;;25.73;40.20;93667.19;4888359;29;7336;-39
2024/01/04 09:20:21;;;;;;;;;;;;;;;25.74;39.35;93660.41;4911997;29;9656;-40
2024/01/04 09:22:58;;;;;;;;;;;;;;;25.72;39.47;93674.72;4929143;29;6992;-40
2024/01/04 09:25:27;;;;;;;;;;;;;;;25.72;39.59;93669.22;4906210;29;7002;-40
2024/01/04 09:28:24;;;;;;;;;;;;;;;25.75;39.57;93662.63;4907058;29;9110;-39
2024/01/04 09:31:24;;;;;;;;;;;;;;;25.75;39.93;93668.13;4914512;29;7876;-39
2024/01/04 09:33:55;;;;;;;;;;;;;;;25.74;39.44;93669.41;4865458;29;9073;-41
2024/01/04 09:36:54;;;;;;;;;;;;;;;25.73;39.88;93672.72;4876431;29;9355;-39
2024/01/04 09:39:28;;;;;;;;;;;;;;;25.71;39.54;93675.25;4828112;29;9306;-39
2024/01/04 09:42:09;;;;;;;;;;;;;;;25.72;39.56;93674.72;4825435;29;8733;-40
2024/01/04 09:44:47;;;;;;;;;;;;;;;25.71;39.58;93675.25;4824356;29;6998;-39
2024/01/04 09:47:17;;;;;;;;;;;;;;;25.68;39.37;93679.81;4828769;29;7282;-39
2024/01/04 09:49:45;;;;;;;;;;;;;;;25.64;39.55;93690.41;4827602;29;7193;-39
2024/01/04 09:52:14;;;;;;;;;;;;;;;25.65;39.66;93688.34;4826848;29;9143;-40
2024/01/04 09:54:44;;;;;;;;;;;;;;;25.64;40.03;93690.41;4825901;29;7010;-40
2024/01/04 09:57:13;;;;;;;;;;;;;;;25.67;39.96;93700.34;4840863;29;9129;-41
2024/01/04 09:59:42;;;;;;;;;;;;;;;25.65;39.07;93691.13;4835535;29;8829;-39
2024/01/04 10:02:14;;;;;;;;;;;;;;;25.70;39.48;93702.03;4824439;29;7552;-39
2024/01/04 10:04:43;;;;;;;;;;;;;;;25.72;38.85;93688.47;4825511;29;7114;-39
2024/01/04 10:07:32;;;;;;;;;;;;;;;25.71;39.52;93687.00;4824938;29;8639;-41
2024/01/04 10:10:20;;;;;;;;;;;;;;;25.68;38.91;93690.81;4880611;29;9157;-41
2024/01/04 10:12:48;;;;;;;;;;;;;;;25.69;39.12;93689.53;4878319;29;7339;-40
2024/01/04 10:15:15;;;;;;;;;;;;;;;25.69;39.06;93686.78;4898816;28;9034;-40
2024/01/04 10:17:45;;;;;;;;;;;;;;;25.69;39.41;93684.03;4953577;28;8537;-39
2024/01/04 10:20:11;;;;;;;;;;;;;;;25.70;39.24;93688.28;4960861;28;8837;-36
2024/01/04 10:22:37;;;;;;;;;;;;;;;25.69;38.80;93692.28;4948494;28;8777;-36
2024/01/04 10:25:18;;;;;;;;;;;;;;;25.72;38.70;93699.50;4945580;28;6975;-36
2024/01/04 10:27:58;;;;;;;;;;;;;;;25.71;39.24;93689.03;4948406;28;9067;-36
2024/01/04 10:30:26;;;;;;;;;;;;;;;25.71;38.54;93689.75;4953154;28;6989;-36
2024/01/04 10:32:58;;;;;;;;;;;;;;;25.75;38.51;93689.44;4947659;28;9020;-36
2024/01/04 10:35:49;;;;;;;;;;;;;;;25.75;39.39;93684.66;4948820;28;7920;-37
2024/01/04 10:38:15;;;;;;;;;;;;;;;25.76;39.40;93691.66;4949082;28;7258;-37
2024/01/04 10:40:41;;;;;;;;;;;;;;;25.75;38.95;93690.16;4957406;28;9452;-36
2024/01/04 10:43:07;;;;;;;;;;;;;;;25.76;38.90;93690.91;4944701;28;9058;-36
2024/01/04 10:45:33;;;;;;;;;;;;;;;25.77;38.82;93681.41;4956959;28;7178;-37
2024/01/04 10:48:01;;;;;;;;;;;;;;;25.77;39.46;93681.41;4963459;28;9211;-36
2024/01/04 10:50:32;;;;;;;;;;;;;;;25.79;38.84;93679.59;4939075;28;7314;-36
2024/01/04 10:53:02;;;;;;;;;;;;;;;25.82;39.12;93681.28;4943251;28;7475;-36
2024/01/04 10:55:32;;;;;;;;;;;;;;;25.81;39.30;93668.78;4952607;28;9085;-36
2024/01/04 10:58:04;;;;;;;;;;;;;;;25.84;39.35;93664.97;4960052;28;7434;-36
2024/01/04 11:00:33;;;;;;;;;;;;;;;25.85;39.16;93671.97;4944508;28;9059;-36
2024/01/04 11:03:02;;;;;;;;;;;;;;;25.86;38.68;93665.16;4957586;28;9043;-36
2024/01/04 11:05:33;;;;;;;;;;;;;;;25.87;38.93;93658.41;4948753;28;7077;-36
2024/01/04 11:08:00;;;;;;;;;;;;;;;25.89;39.14;93650.34;4950592;28;6994;-36
2024/01/04 11:10:28;;;;;;;;;;;;;;;25.91;38.70;93653.31;4941470;28;9074;-36
2024/01/04 11:12:58;;;;;;;;;;;;;;;25.90;38.85;93645.59;4958463;28;7369;-36
2024/01/04 11:15:25;;;;;;;;;;;;;;;25.90;39.21;93640.06;4962098;28;7207;-36
2024/01/04 11:18:21;;;;;;;;;;;;;;;25.90;39.18;93635.28;4944144;28;7275;-36
2024/01/04 11:21:12;;;;;;;;;;;;;;;25.89;38.95;93627.56;4959070;28;7273;-36
2024/01/04 11:24:05;;;;;;;;;;;;;;;25.90;38.54;93618.75;4953441;28;7367;-36
2024/01/04 11:26:51;;;;;;;;;;;;;;;25.92;38.37;93619.00;4960802;28;7330;-36
2024/01/04 11:29:20;;;;;;;;;;;;;;;25.90;38.50;93618.75;4968401;28;9114;-40
2024/01/04 11:31:49;;;;;;;;;;;;;;;25.92;38.63;93602.47;4967126;28;7010;-41
2024/01/04 11:34:18;;;;;;;;;;;;;;;25.91;39.20;93600.97;4954574;28;9102;-39
2024/01/04 11:37:15;;;;;;;;;;;;;;;25.91;39.06;93603.72;4945449;28;7232;-39
2024/01/04 11:40:37;;;;;;;;;;;;;;;25.94;39.13;93593.66;4966806;28;6970;-39
2024/01/04 11:43:16;;;;;;;;;;;;;;;25.96;38.56;93591.09;4901210;29;9123;-40
2024/01/04 11:45:53;;;;;;;;;;;;;;;25.99;38.88;93588.00;4915071;29;9174;-40
2024/01/04 11:48:20;;;;;;;;;;;;;;;25.98;38.96;93575.53;4915067;29;7200;-41
2024/01/04 11:50:58;;;;;;;;;;;;;;;25.98;38.70;93580.28;4912879;29;7336;-39
2024/01/04 11:53:39;;;;;;;;;;;;;;;25.99;38.94;93579.75;4916265;29;9242;-40
2024/01/04 11:56:18;;;;;;;;;;;;;;;26.02;38.87;93575.19;4908935;29;7371;-40
2024/01/04 11:59:08;;;;;;;;;;;;;;;26.02;39.10;93581.44;4922534;29;9566;-41
2024/01/04 12:01:45;;;;;;;;;;;;;;;26.02;38.78;93589.72;4916592;29;7257;-39
2024/01/04 12:04:22;;;;;;;;;;;;;;;25.96;38.70;93583.59;4900109;29;7010;-39
2024/01/04 12:06:49;;;;;;;;;;;;;;;26.00;38.21;93586.75;4916475;29;9119;-39
2024/01/04 12:09:26;;;;;;;;;;;;;;;26.04;38.86;93578.16;4915993;29;6994;-39
2024/01/04 12:11:56;;;;;;;;;;;;;;;26.07;39.13;93591.63;4915332;29;7602;-40
2024/01/04 12:14:44;;;;;;;;;;;;;;;26.06;38.71;93581.13;4900271;29;7194;-39
2024/01/04 12:17:13;;;;;;;;;;;;;;;26.02;39.15;93595.22;4934439;28;7350;-39
2024/01/04 12:19:55;;;;;;;;;;;;;;;26.06;38.97;93575.59;4962422;28;7238;-40
2024/01/04 12:22:27;;;;;;;;;;;;;;;26.08;38.80;93576.59;4955089;28;7075;-41
2024/01/04 12:24:55;;;;;;;;;;;;;;;26.08;38.96;93573.81;4953162;28;9031;-39
2024/01/04 12:27:32;;;;;;;;;;;;;;;26.09;39.25;93575.31;4946065;28;7529;-40
2024/01/04 12:30:06;;;;;;;;;;;;;;;26.09;39.18;93575.31;4954960;28;9055;-41
2024/01/04 12:32:44;;;;;;;;;;;;;;;26.11;39.36;93570.00;4939543;28;6993;-39
2024/01/04 12:35:43;;;;;;;;;;;;;;;26.16;39.54;93573.94;4951855;28;9112;-39
2024/01/04 12:38:14;;;;;;;;;;;;;;;26.14;38.67;93560.66;4960053;28;7033;-36
2024/01/04 12:40:48;;;;;;;;;;;;;;;26.17;39.36;93567.88;4953789;28;9586;-36
2024/01/04 12:43:26;;;;;;;;;;;;;;;26.20;39.03;93566.06;4937188;28;7062;-36
2024/01/04 12:46:19;;;;;;;;;;;;;;;26.24;39.29;93563.72;4946599;28;7498;-36
2024/01/04 12:49:08;;;;;;;;;;;;;;;26.27;38.93;93562.66;4959601;28;6992;-36
2024/01/04 12:51:44;;;;;;;;;;;;;;;26.28;39.64;93555.09;4968923;28;8782;-36
2024/01/04 12:54:11;;;;;;;;;;;;;;;26.26;38.96;93557.66;4951898;29;7242;-36
2024/01/04 12:56:54;;;;;;;;;;;;;;;26.30;38.69;93555.31;4963867;28;7334;-36
2024/01/04 12:59:31;;;;;;;;;;;;;;;26.33;39.07;93554.25;4966952;28;7978;-36
2024/01/04 13:01:58;;;;;;;;;;;;;;;26.32;39.55;93552.78;4947632;29;7032;-36
2024/01/04 13:04:31;;;;;;;;;;;;;;;26.35;39.15;93546.94;4953973;29;9067;-36
2024/01/04 13:07:00;;;;;;;;;;;;;;;26.37;38.96;93552.66;4956124;28;9043;-36
2024/01/04 13:09:34;;;;;;;;;;;;;;;26.37;39.06;93555.41;4945460;28;9102;-36
2024/01/04 13:12:02;;;;;;;;;;;;;;;26.40;39.15;93548.84;4949911;29;7020;-36
2024/01/04 13:14:33;;;;;;;;;;;;;;;26.41;38.92;93544.78;4954564;28;9107;-36
2024/01/04 13:17:01;;;;;;;;;;;;;;;26.41;39.19;93544.78;4970247;28;9468;-36
2024/01/04 13:19:53;;;;;;;;;;;;;;;26.40;39.54;93548.09;4948391;28;9102;-36
2024/01/04 13:22:33;;;;;;;;;;;;;;;26.38;38.87;93545.13;4955840;29;9104;-36
2024/01/04 13:25:27;;;;;;;;;;;;;;;26.41;39.18;93541.28;4954220;29;6967;-36
2024/01/04 13:27:54;;;;;;;;;;;;;;;26.41;39.02;93544.03;4862580;29;9124;-36
2024/01/04 13:30:30;;;;;;;;;;;;;;;26.43;39.20;93545.00;4858970;29;9183;-36
2024/01/04 13:33:01;;;;;;;;;;;;;;;26.50;39.14;93540.81;4862667;29;9174;-36
2024/01/04 13:35:40;;;;;;;;;;;;;;;26.52;38.88;93543.78;4846968;29;8446;-36
2024/01/04 13:38:10;;;;;;;;;;;;;;;26.51;39.43;93547.84;4861710;29;7862;-36
2024/01/04 13:40:46;;;;;;;;;;;;;;;26.52;39.02;93543.78;4875749;29;9135;-36